sensor_id;sensor_type;location;lat;lon;timestamp;pressure;altitude;pressure_sealevel;temperature;humidity
64610;BME280;51019;46.090;6.350;2023-04-08T00:00:44;96711.25;;;-0.46;100.00
64610;BME280;51019;46.090;6.350;2023-04-08T00:03:11;96784.13;;;-0.08;100.00
64610;BME280;51019;46.090;6.350;2023-04-08T00:05:39;96784.69;;;-0.01;100.00
64610;BME280;51019;46.090;6.350;2023-04-08T00:08:08;96781.28;;;-0.02;100.00
64610;BME280;51019;46.090;6.350;2023-04-08T00:10:36;96788.69;;;-0.13;100.00
64610;BME280;51019;46.090;6.350;2023-04-08T00:13:03;96679.03;;;-0.73;100.00
64610;BME280;51019;46.090;6.350;2023-04-08T00:15:31;96775.81;;;-0.13;100.00
64610;BME280;51019;46.090;6.350;2023-04-08T00:17:58;96779.75;;;-0.06;100.00
64610;BME280;51019;46.090;6.350;2023-04-08T00:20:26;96779.56;;;-0.01;100.00
64610;BME280;51019;46.090;6.350;2023-04-08T00:22:54;96772.09;;;-0.07;100.00
64610;BME280;51019;46.090;6.350;2023-04-08T00:25:23;96782.25;;;-0.04;100.00
64610;BME280;51019;46.090;6.350;2023-04-08T00:27:50;96661.38;;;-0.99;100.00
64610;BME280;51019;46.090;6.350;2023-04-08T00:30:18;96791.91;;;-0.26;100.00
64610;BME280;51019;46.090;6.350;2023-04-08T00:32:46;96781.28;;;-0.20;100.00
64610;BME280;51019;46.090;6.350;2023-04-08T00:35:15;96784.50;;;-0.15;100.00
64610;BME280;51019;46.090;6.350;2023-04-08T00:37:43;96749.22;;;-0.32;100.00
64610;BME280;51019;46.090;6.350;2023-04-08T00:40:10;96759.75;;;-0.37;100.00
64610;BME280;51019;46.090;6.350;2023-04-08T00:42:40;96784.22;;;-0.09;100.00
64610;BME280;51019;46.090;6.350;2023-04-08T00:45:09;96756.59;;;-0.24;100.00
64610;BME280;51019;46.090;6.350;2023-04-08T00:47:37;96761.13;;;-0.29;100.00
64610;BME280;51019;46.090;6.350;2023-04-08T00:50:08;96778.22;;;-0.10;100.00
64610;BME280;51019;46.090;6.350;2023-04-08T00:52:37;96775.38;;;-0.22;100.00
64610;BME280;51019;46.090;6.350;2023-04-08T00:55:05;96775.66;;;-0.28;100.00
64610;BME280;51019;46.090;6.350;2023-04-08T00:57:33;96774.28;;;-0.17;100.00
64610;BME280;51019;46.090;6.350;2023-04-08T01:00:04;96682.78;;;-0.99;100.00
64610;BME280;51019;46.090;6.350;2023-04-08T01:02:39;96739.56;;;-0.83;100.00
64610;BME280;51019;46.090;6.350;2023-04-08T01:05:13;96641.94;;;-1.44;100.00
64610;BME280;51019;46.090;6.350;2023-04-08T01:07:44;96775.19;;;-0.55;100.00
64610;BME280;51019;46.090;6.350;2023-04-08T01:10:16;96770.44;;;-0.64;100.00
64610;BME280;51019;46.090;6.350;2023-04-08T01:12:48;96761.81;;;-0.63;100.00
64610;BME280;51019;46.090;6.350;2023-04-08T01:15:18;96772.88;;;-0.61;100.00
64610;BME280;51019;46.090;6.350;2023-04-08T01:17:46;96768.72;;;-0.64;100.00
64610;BME280;51019;46.090;6.350;2023-04-08T01:20:18;96753.66;;;-0.92;100.00
64610;BME280;51019;46.090;6.350;2023-04-08T01:22:54;96768.41;;;-0.95;100.00
64610;BME280;51019;46.090;6.350;2023-04-08T01:25:29;96771.56;;;-1.09;100.00
64610;BME280;51019;46.090;6.350;2023-04-08T01:27:59;96763.44;;;-1.00;100.00
64610;BME280;51019;46.090;6.350;2023-04-08T01:30:29;96710.28;;;-1.20;100.00
64610;BME280;51019;46.090;6.350;2023-04-08T01:32:58;96767.50;;;-0.76;100.00
64610;BME280;51019;46.090;6.350;2023-04-08T01:35:29;96764.47;;;-0.84;100.00
64610;BME280;51019;46.090;6.350;2023-04-08T01:37:58;96755.25;;;-0.89;100.00
64610;BME280;51019;46.090;6.350;2023-04-08T01:40:27;96701.75;;;-1.20;100.00
64610;BME280;51019;46.090;6.350;2023-04-08T01:42:59;96768.47;;;-0.78;100.00
64610;BME280;51019;46.090;6.350;2023-04-08T01:45:27;96768.16;;;-0.70;100.00
64610;BME280;51019;46.090;6.350;2023-04-08T01:47:59;96770.38;;;-0.82;100.00
64610;BME280;51019;46.090;6.350;2023-04-08T01:50:28;96759.31;;;-0.84;100.00
64610;BME280;51019;46.090;6.350;2023-04-08T01:52:58;96771.41;;;-0.67;100.00
64610;BME280;51019;46.090;6.350;2023-04-08T01:55:27;96770.88;;;-0.74;100.00
64610;BME280;51019;46.090;6.350;2023-04-08T01:57:55;96660.69;;;-1.81;100.00
64610;BME280;51019;46.090;6.350;2023-04-08T02:00:29;96743.13;;;-1.25;100.00
64610;BME280;51019;46.090;6.350;2023-04-08T02:02:57;96770.31;;;-0.80;100.00
64610;BME280;51019;46.090;6.350;2023-04-08T02:05:26;96767.94;;;-0.85;100.00
64610;BME280;51019;46.090;6.350;2023-04-08T02:07:55;96770.25;;;-0.99;100.00
64610;BME280;51019;46.090;6.350;2023-04-08T02:10:22;96774.88;;;-0.87;100.00
64610;BME280;51019;46.090;6.350;2023-04-08T02:12:49;96771.63;;;-1.11;100.00
64610;BME280;51019;46.090;6.350;2023-04-08T02:15:17;96721.56;;;-1.42;100.00
64610;BME280;51019;46.090;6.350;2023-04-08T02:17:49;96775.19;;;-1.13;100.00
64610;BME280;51019;46.090;6.350;2023-04-08T02:20:22;96691.63;;;-1.64;100.00
64610;BME280;51019;46.090;6.350;2023-04-08T02:22:55;96774.63;;;-1.01;100.00
64610;BME280;51019;46.090;6.350;2023-04-08T02:25:25;96775.41;;;-0.99;100.00
64610;BME280;51019;46.090;6.350;2023-04-08T02:27:54;96693.56;;;-1.49;100.00
64610;BME280;51019;46.090;6.350;2023-04-08T02:30:24;96784.38;;;-0.89;100.00
64610;BME280;51019;46.090;6.350;2023-04-08T02:32:56;96780.72;;;-1.02;100.00
64610;BME280;51019;46.090;6.350;2023-04-08T02:35:24;96778.88;;;-1.00;100.00
64610;BME280;51019;46.090;6.350;2023-04-08T02:37:53;96779.94;;;-1.24;100.00
64610;BME280;51019;46.090;6.350;2023-04-08T02:40:25;96780.91;;;-1.27;100.00
64610;BME280;51019;46.090;6.350;2023-04-08T02:42:53;96768.22;;;-1.31;100.00
64610;BME280;51019;46.090;6.350;2023-04-08T02:45:24;96777.63;;;-1.30;100.00
64610;BME280;51019;46.090;6.350;2023-04-08T02:47:56;96789.69;;;-1.32;100.00
64610;BME280;51019;46.090;6.350;2023-04-08T02:50:23;96735.06;;;-1.58;100.00
64610;BME280;51019;46.090;6.350;2023-04-08T02:52:51;96660.09;;;-1.88;100.00
64610;BME280;51019;46.090;6.350;2023-04-08T02:55:19;96780.00;;;-1.05;100.00
64610;BME280;51019;46.090;6.350;2023-04-08T02:57:46;96790.41;;;-1.08;100.00
64610;BME280;51019;46.090;6.350;2023-04-08T03:00:15;96794.59;;;-1.06;100.00
64610;BME280;51019;46.090;6.350;2023-04-08T03:02:43;96780.75;;;-1.03;100.00
64610;BME280;51019;46.090;6.350;2023-04-08T03:05:16;96787.03;;;-0.90;100.00
64610;BME280;51019;46.090;6.350;2023-04-08T03:07:43;96782.41;;;-0.82;100.00
64610;BME280;51019;46.090;6.350;2023-04-08T03:10:12;96724.28;;;-1.25;100.00
64610;BME280;51019;46.090;6.350;2023-04-08T03:12:40;96782.28;;;-0.79;100.00
64610;BME280;51019;46.090;6.350;2023-04-08T03:15:08;96787.13;;;-0.92;100.00
64610;BME280;51019;46.090;6.350;2023-04-08T03:17:36;96755.34;;;-1.11;100.00
64610;BME280;51019;46.090;6.350;2023-04-08T03:20:04;96787.66;;;-1.04;100.00
64610;BME280;51019;46.090;6.350;2023-04-08T03:22:34;96788.16;;;-1.16;100.00
64610;BME280;51019;46.090;6.350;2023-04-08T03:25:02;96789.59;;;-1.29;100.00
64610;BME280;51019;46.090;6.350;2023-04-08T03:27:30;96781.22;;;-1.34;100.00
64610;BME280;51019;46.090;6.350;2023-04-08T03:29:57;96781.53;;;-1.42;100.00
64610;BME280;51019;46.090;6.350;2023-04-08T03:32:25;96793.38;;;-1.38;100.00
64610;BME280;51019;46.090;6.350;2023-04-08T03:34:53;96696.50;;;-1.78;100.00
64610;BME280;51019;46.090;6.350;2023-04-08T03:37:23;96793.19;;;-1.13;100.00
64610;BME280;51019;46.090;6.350;2023-04-08T03:39:53;96784.19;;;-1.43;100.00
64610;BME280;51019;46.090;6.350;2023-04-08T03:42:20;96792.47;;;-1.37;100.00
64610;BME280;51019;46.090;6.350;2023-04-08T03:44:47;96788.28;;;-1.39;100.00
64610;BME280;51019;46.090;6.350;2023-04-08T03:47:15;96683.94;;;-2.04;100.00
64610;BME280;51019;46.090;6.350;2023-04-08T03:49:46;96707.47;;;-2.15;100.00
64610;BME280;51019;46.090;6.350;2023-04-08T03:52:14;96710.50;;;-2.05;100.00
64610;BME280;51019;46.090;6.350;2023-04-08T03:54:43;96768.25;;;-1.52;100.00
64610;BME280;51019;46.090;6.350;2023-04-08T03:57:13;96776.59;;;-1.26;100.00
64610;BME280;51019;46.090;6.350;2023-04-08T03:59:41;96708.22;;;-1.71;100.00
64610;BME280;51019;46.090;6.350;2023-04-08T04:02:09;96795.75;;;-1.33;100.00
64610;BME280;51019;46.090;6.350;2023-04-08T04:04:37;96778.19;;;-1.44;100.00
64610;BME280;51019;46.090;6.350;2023-04-08T04:07:05;96760.75;;;-1.58;100.00
64610;BME280;51019;46.090;6.350;2023-04-08T04:09:32;96806.34;;;-1.21;100.00
64610;BME280;51019;46.090;6.350;2023-04-08T04:12:00;96793.56;;;-1.02;100.00
64610;BME280;51019;46.090;6.350;2023-04-08T04:14:29;96803.22;;;-1.07;100.00
64610;BME280;51019;46.090;6.350;2023-04-08T04:16:56;96691.19;;;-1.94;100.00
64610;BME280;51019;46.090;6.350;2023-04-08T04:19:24;96808.63;;;-1.13;100.00
64610;BME280;51019;46.090;6.350;2023-04-08T04:21:51;96788.94;;;-1.14;100.00
64610;BME280;51019;46.090;6.350;2023-04-08T04:24:18;96813.69;;;-1.12;100.00
64610;BME280;51019;46.090;6.350;2023-04-08T04:26:54;96816.19;;;-1.30;100.00
64610;BME280;51019;46.090;6.350;2023-04-08T04:29:22;96807.59;;;-1.29;100.00
64610;BME280;51019;46.090;6.350;2023-04-08T04:31:52;96808.81;;;-1.38;100.00
64610;BME280;51019;46.090;6.350;2023-04-08T04:34:19;96815.63;;;-1.17;100.00
64610;BME280;51019;46.090;6.350;2023-04-08T04:36:47;96814.78;;;-1.17;100.00
64610;BME280;51019;46.090;6.350;2023-04-08T04:39:15;96703.72;;;-1.86;100.00
64610;BME280;51019;46.090;6.350;2023-04-08T04:41:42;96793.06;;;-1.30;100.00
64610;BME280;51019;46.090;6.350;2023-04-08T04:44:11;96784.50;;;-1.31;100.00
64610;BME280;51019;46.090;6.350;2023-04-08T04:46:39;96816.13;;;-1.08;100.00
64610;BME280;51019;46.090;6.350;2023-04-08T04:49:09;96813.09;;;-0.98;100.00
64610;BME280;51019;46.090;6.350;2023-04-08T04:51:38;96813.88;;;-1.16;100.00
64610;BME280;51019;46.090;6.350;2023-04-08T04:54:05;96815.34;;;-1.31;100.00
64610;BME280;51019;46.090;6.350;2023-04-08T04:56:33;96816.66;;;-1.21;100.00
64610;BME280;51019;46.090;6.350;2023-04-08T04:59:01;96798.69;;;-1.42;100.00
64610;BME280;51019;46.090;6.350;2023-04-08T05:01:30;96807.06;;;-1.17;100.00
64610;BME280;51019;46.090;6.350;2023-04-08T05:03:58;96805.34;;;-1.17;100.00
64610;BME280;51019;46.090;6.350;2023-04-08T05:06:27;96818.75;;;-1.10;100.00
64610;BME280;51019;46.090;6.350;2023-04-08T05:08:54;96834.41;;;-1.15;100.00
64610;BME280;51019;46.090;6.350;2023-04-08T05:11:24;96819.16;;;-1.39;100.00
64610;BME280;51019;46.090;6.350;2023-04-08T05:13:51;96837.44;;;-1.25;100.00
64610;BME280;51019;46.090;6.350;2023-04-08T05:16:19;96758.84;;;-1.73;100.00
64610;BME280;51019;46.090;6.350;2023-04-08T05:18:46;96835.47;;;-1.20;100.00
64610;BME280;51019;46.090;6.350;2023-04-08T05:21:13;96834.78;;;-1.03;100.00
64610;BME280;51019;46.090;6.350;2023-04-08T05:23:43;96749.06;;;-1.65;100.00
64610;BME280;51019;46.090;6.350;2023-04-08T05:26:10;96824.81;;;-1.31;100.00
64610;BME280;51019;46.090;6.350;2023-04-08T05:28:38;96780.00;;;-1.88;100.00
64610;BME280;51019;46.090;6.350;2023-04-08T05:31:06;96851.22;;;-1.48;100.00
64610;BME280;51019;46.090;6.350;2023-04-08T05:33:33;96832.84;;;-1.39;100.00
64610;BME280;51019;46.090;6.350;2023-04-08T05:36:01;96856.75;;;-1.37;100.00
64610;BME280;51019;46.090;6.350;2023-04-08T05:38:29;96845.97;;;-1.67;100.00
64610;BME280;51019;46.090;6.350;2023-04-08T05:40:58;96854.41;;;-1.85;100.00
64610;BME280;51019;46.090;6.350;2023-04-08T05:43:27;96847.63;;;-1.88;100.00
64610;BME280;51019;46.090;6.350;2023-04-08T05:45:54;96815.44;;;-1.96;100.00
64610;BME280;51019;46.090;6.350;2023-04-08T05:48:22;96850.75;;;-1.79;100.00
64610;BME280;51019;46.090;6.350;2023-04-08T05:50:49;96771.66;;;-1.93;100.00
64610;BME280;51019;46.090;6.350;2023-04-08T05:53:17;96851.03;;;-1.23;100.00
64610;BME280;51019;46.090;6.350;2023-04-08T05:55:44;96860.69;;;-1.08;100.00
64610;BME280;51019;46.090;6.350;2023-04-08T05:58:14;96798.19;;;-1.51;100.00
64610;BME280;51019;46.090;6.350;2023-04-08T06:00:41;96847.13;;;-1.12;100.00
64610;BME280;51019;46.090;6.350;2023-04-08T06:03:09;96815.56;;;-1.15;100.00
64610;BME280;51019;46.090;6.350;2023-04-08T06:05:36;96821.59;;;-1.16;100.00
64610;BME280;51019;46.090;6.350;2023-04-08T06:08:04;96861.16;;;-0.98;100.00
64610;BME280;51019;46.090;6.350;2023-04-08T06:10:32;96879.16;;;-0.58;100.00
64610;BME280;51019;46.090;6.350;2023-04-08T06:13:00;96864.16;;;-0.68;100.00
64610;BME280;51019;46.090;6.350;2023-04-08T06:15:31;96876.88;;;-0.65;100.00
64610;BME280;51019;46.090;6.350;2023-04-08T06:17:58;96851.38;;;-0.70;100.00
64610;BME280;51019;46.090;6.350;2023-04-08T06:20:26;96873.13;;;-0.38;100.00
64610;BME280;51019;46.090;6.350;2023-04-08T06:22:53;96805.47;;;-0.60;100.00
64610;BME280;51019;46.090;6.350;2023-04-08T06:25:21;96866.66;;;-0.28;100.00
64610;BME280;51019;46.090;6.350;2023-04-08T06:27:49;96874.59;;;-0.14;100.00
64610;BME280;51019;46.090;6.350;2023-04-08T06:30:16;96865.56;;;-0.04;100.00
64610;BME280;51019;46.090;6.350;2023-04-08T06:32:46;96879.56;;;0.10;100.00
64610;BME280;51019;46.090;6.350;2023-04-08T06:35:14;96878.00;;;0.24;100.00
64610;BME280;51019;46.090;6.350;2023-04-08T06:37:41;96863.34;;;0.44;100.00
64610;BME280;51019;46.090;6.350;2023-04-08T06:40:11;96881.66;;;0.56;100.00
64610;BME280;51019;46.090;6.350;2023-04-08T06:42:39;96876.38;;;0.77;100.00
64610;BME280;51019;46.090;6.350;2023-04-08T06:45:08;96777.97;;;0.14;100.00
64610;BME280;51019;46.090;6.350;2023-04-08T06:47:36;96881.22;;;1.34;100.00
64610;BME280;51019;46.090;6.350;2023-04-08T06:50:06;96808.50;;;0.92;100.00
64610;BME280;51019;46.090;6.350;2023-04-08T06:52:33;96848.03;;;1.27;100.00
64610;BME280;51019;46.090;6.350;2023-04-08T06:55:01;96851.41;;;0.77;100.00
64610;BME280;51019;46.090;6.350;2023-04-08T06:57:28;96850.97;;;1.36;100.00
64610;BME280;51019;46.090;6.350;2023-04-08T06:59:56;96868.34;;;1.50;100.00
64610;BME280;51019;46.090;6.350;2023-04-08T07:02:25;96876.06;;;1.34;100.00
64610;BME280;51019;46.090;6.350;2023-04-08T07:04:53;96885.63;;;1.15;100.00
64610;BME280;51019;46.090;6.350;2023-04-08T07:07:22;96850.81;;;1.39;100.00
64610;BME280;51019;46.090;6.350;2023-04-08T07:09:50;96883.56;;;1.72;100.00
64610;BME280;51019;46.090;6.350;2023-04-08T07:12:18;96876.88;;;2.48;100.00
64610;BME280;51019;46.090;6.350;2023-04-08T07:14:45;96874.09;;;2.04;100.00
64610;BME280;51019;46.090;6.350;2023-04-08T07:17:13;96778.44;;;1.72;100.00
64610;BME280;51019;46.090;6.350;2023-04-08T07:19:40;96884.22;;;2.55;100.00
64610;BME280;51019;46.090;6.350;2023-04-08T07:22:09;96873.09;;;2.53;100.00
64610;BME280;51019;46.090;6.350;2023-04-08T07:24:39;96785.13;;;2.24;100.00
64610;BME280;51019;46.090;6.350;2023-04-08T07:27:07;96881.97;;;3.39;100.00
64610;BME280;51019;46.090;6.350;2023-04-08T07:29:35;96877.09;;;3.05;100.00
64610;BME280;51019;46.090;6.350;2023-04-08T07:32:02;96891.53;;;3.95;100.00
64610;BME280;51019;46.090;6.350;2023-04-08T07:34:30;96882.84;;;3.68;100.00
64610;BME280;51019;46.090;6.350;2023-04-08T07:36:57;96890.72;;;3.95;100.00
64610;BME280;51019;46.090;6.350;2023-04-08T07:39:25;96876.50;;;4.70;100.00
64610;BME280;51019;46.090;6.350;2023-04-08T07:41:54;96893.56;;;5.14;100.00
64610;BME280;51019;46.090;6.350;2023-04-08T07:44:22;96899.03;;;4.69;100.00
64610;BME280;51019;46.090;6.350;2023-04-08T07:46:49;96890.41;;;5.08;100.00
64610;BME280;51019;46.090;6.350;2023-04-08T07:49:18;96895.25;;;5.27;100.00
64610;BME280;51019;46.090;6.350;2023-04-08T07:51:46;96886.19;;;5.33;100.00
64610;BME280;51019;46.090;6.350;2023-04-08T07:54:13;96788.97;;;4.85;100.00
64610;BME280;51019;46.090;6.350;2023-04-08T07:56:44;96861.28;;;5.94;100.00
64610;BME280;51019;46.090;6.350;2023-04-08T07:59:16;96882.94;;;6.43;100.00
64610;BME280;51019;46.090;6.350;2023-04-08T08:01:44;96891.59;;;6.68;100.00
64610;BME280;51019;46.090;6.350;2023-04-08T08:04:11;96891.13;;;6.63;100.00
64610;BME280;51019;46.090;6.350;2023-04-08T08:06:39;96897.50;;;5.97;100.00
64610;BME280;51019;46.090;6.350;2023-04-08T08:09:07;96847.97;;;5.86;100.00
64610;BME280;51019;46.090;6.350;2023-04-08T08:11:34;96851.31;;;6.61;100.00
64610;BME280;51019;46.090;6.350;2023-04-08T08:14:04;96899.94;;;7.20;100.00
64610;BME280;51019;46.090;6.350;2023-04-08T08:16:34;96896.16;;;7.01;100.00
64610;BME280;51019;46.090;6.350;2023-04-08T08:19:03;96900.66;;;6.99;100.00
64610;BME280;51019;46.090;6.350;2023-04-08T08:21:31;96898.94;;;6.86;100.00
64610;BME280;51019;46.090;6.350;2023-04-08T08:24:03;96890.63;;;7.05;100.00
64610;BME280;51019;46.090;6.350;2023-04-08T08:26:33;96899.63;;;7.36;100.00
64610;BME280;51019;46.090;6.350;2023-04-08T08:29:04;96908.34;;;7.59;100.00
64610;BME280;51019;46.090;6.350;2023-04-08T08:31:34;96902.72;;;7.98;100.00
64610;BME280;51019;46.090;6.350;2023-04-08T08:34:03;96824.03;;;7.58;100.00
64610;BME280;51019;46.090;6.350;2023-04-08T08:36:30;96899.63;;;8.16;100.00
64610;BME280;51019;46.090;6.350;2023-04-08T08:38:58;96910.59;;;8.32;100.00
64610;BME280;51019;46.090;6.350;2023-04-08T08:41:26;96872.22;;;7.99;100.00
64610;BME280;51019;46.090;6.350;2023-04-08T08:43:54;96883.97;;;8.49;100.00
64610;BME280;51019;46.090;6.350;2023-04-08T08:46:22;96840.78;;;8.23;100.00
64610;BME280;51019;46.090;6.350;2023-04-08T08:48:52;96898.47;;;9.28;100.00
64610;BME280;51019;46.090;6.350;2023-04-08T08:51:19;96903.69;;;8.53;100.00
64610;BME280;51019;46.090;6.350;2023-04-08T08:53:47;96831.13;;;7.45;100.00
64610;BME280;51019;46.090;6.350;2023-04-08T08:56:14;96910.56;;;9.08;100.00
64610;BME280;51019;46.090;6.350;2023-04-08T08:58:41;96904.88;;;9.77;100.00
64610;BME280;51019;46.090;6.350;2023-04-08T09:01:34;96901.69;;;9.73;100.00
64610;BME280;51019;46.090;6.350;2023-04-08T09:04:12;96906.59;;;9.88;100.00
64610;BME280;51019;46.090;6.350;2023-04-08T09:06:41;96895.91;;;9.70;99.77
64610;BME280;51019;46.090;6.350;2023-04-08T09:09:09;96899.41;;;10.10;98.62
64610;BME280;51019;46.090;6.350;2023-04-08T09:11:37;96897.06;;;9.24;100.00
64610;BME280;51019;46.090;6.350;2023-04-08T09:14:05;96890.44;;;10.03;96.78
64610;BME280;51019;46.090;6.350;2023-04-08T09:16:43;96832.03;;;8.99;97.97
64610;BME280;51019;46.090;6.350;2023-04-08T09:19:12;96853.47;;;10.27;98.10
64610;BME280;51019;46.090;6.350;2023-04-08T09:21:41;96839.34;;;10.49;97.64
64610;BME280;51019;46.090;6.350;2023-04-08T09:24:09;96827.06;;;10.49;91.33
64610;BME280;51019;46.090;6.350;2023-04-08T09:26:54;96883.09;;;10.68;91.41
64610;BME280;51019;46.090;6.350;2023-04-08T09:29:24;96892.94;;;10.35;94.69
64610;BME280;51019;46.090;6.350;2023-04-08T09:31:54;96889.44;;;9.74;100.00
64610;BME280;51019;46.090;6.350;2023-04-08T09:34:25;96886.75;;;9.43;99.01
64610;BME280;51019;46.090;6.350;2023-04-08T09:36:53;96896.59;;;10.63;98.72
64610;BME280;51019;46.090;6.350;2023-04-08T09:39:21;96876.09;;;10.97;92.66
64610;BME280;51019;46.090;6.350;2023-04-08T09:41:50;96883.13;;;11.93;91.99
64610;BME280;51019;46.090;6.350;2023-04-08T09:44:20;96773.53;;;11.10;89.50
64610;BME280;51019;46.090;6.350;2023-04-08T09:46:55;96820.09;;;10.29;93.04
64610;BME280;51019;46.090;6.350;2023-04-08T09:49:28;96868.63;;;11.70;89.87
64610;BME280;51019;46.090;6.350;2023-04-08T09:52:05;96870.03;;;11.06;89.92
64610;BME280;51019;46.090;6.350;2023-04-08T09:54:38;96880.53;;;10.37;96.99
64610;BME280;51019;46.090;6.350;2023-04-08T09:57:09;96875.69;;;11.40;95.43
64610;BME280;51019;46.090;6.350;2023-04-08T09:59:56;96877.22;;;11.33;91.40
64610;BME280;51019;46.090;6.350;2023-04-08T10:02:29;96854.84;;;11.19;93.06
64610;BME280;51019;46.090;6.350;2023-04-08T10:05:02;96861.69;;;12.34;87.03
64610;BME280;51019;46.090;6.350;2023-04-08T10:07:31;96873.06;;;11.79;89.43
64610;BME280;51019;46.090;6.350;2023-04-08T10:09:58;96873.03;;;13.07;82.07
64610;BME280;51019;46.090;6.350;2023-04-08T10:12:26;96837.13;;;13.60;68.87
64610;BME280;51019;46.090;6.350;2023-04-08T10:15:21;96869.09;;;14.16;63.84
64610;BME280;51019;46.090;6.350;2023-04-08T10:17:49;96853.13;;;13.66;64.53
64610;BME280;51019;46.090;6.350;2023-04-08T10:20:45;96861.84;;;13.41;64.00
64610;BME280;51019;46.090;6.350;2023-04-08T10:23:16;96844.47;;;13.30;62.03
64610;BME280;51019;46.090;6.350;2023-04-08T10:25:46;96855.53;;;14.71;62.09
64610;BME280;51019;46.090;6.350;2023-04-08T10:28:31;96827.03;;;14.75;61.67
64610;BME280;51019;46.090;6.350;2023-04-08T10:31:00;96852.25;;;14.77;59.47
64610;BME280;51019;46.090;6.350;2023-04-08T10:33:32;96839.91;;;14.78;54.57
64610;BME280;51019;46.090;6.350;2023-04-08T10:36:10;96845.84;;;14.88;55.23
64610;BME280;51019;46.090;6.350;2023-04-08T10:38:40;96849.56;;;15.44;53.28
64610;BME280;51019;46.090;6.350;2023-04-08T10:41:09;96841.47;;;15.45;53.00
64610;BME280;51019;46.090;6.350;2023-04-08T10:43:46;96814.56;;;15.58;53.88
64610;BME280;51019;46.090;6.350;2023-04-08T10:46:15;96827.00;;;14.67;53.78
64610;BME280;51019;46.090;6.350;2023-04-08T10:48:58;96782.66;;;15.84;53.45
64610;BME280;51019;46.090;6.350;2023-04-08T10:51:31;96838.91;;;16.25;50.58
64610;BME280;51019;46.090;6.350;2023-04-08T10:54:08;96823.03;;;16.25;51.58
64610;BME280;51019;46.090;6.350;2023-04-08T10:56:42;96832.41;;;16.27;51.12
64610;BME280;51019;46.090;6.350;2023-04-08T10:59:12;96840.06;;;16.61;51.96
64610;BME280;51019;46.090;6.350;2023-04-08T11:01:45;96829.63;;;16.60;47.70
64610;BME280;51019;46.090;6.350;2023-04-08T11:04:14;96809.25;;;16.77;50.04
64610;BME280;51019;46.090;6.350;2023-04-08T11:06:47;96833.94;;;17.68;46.39
64610;BME280;51019;46.090;6.350;2023-04-08T11:09:15;96729.66;;;15.69;48.84
64610;BME280;51019;46.090;6.350;2023-04-08T11:11:44;96810.84;;;16.08;48.77
64610;BME280;51019;46.090;6.350;2023-04-08T11:14:13;96845.94;;;15.45;52.79
64610;BME280;51019;46.090;6.350;2023-04-08T11:16:41;96816.19;;;15.51;50.13
64610;BME280;51019;46.090;6.350;2023-04-08T11:19:09;96800.66;;;15.48;52.27
64610;BME280;51019;46.090;6.350;2023-04-08T11:21:39;96764.34;;;13.85;56.43
64610;BME280;51019;46.090;6.350;2023-04-08T11:24:12;96816.63;;;13.71;58.46
64610;BME280;51019;46.090;6.350;2023-04-08T11:26:41;96821.50;;;12.87;60.28
64610;BME280;51019;46.090;6.350;2023-04-08T11:29:09;96804.38;;;13.36;61.41
64610;BME280;51019;46.090;6.350;2023-04-08T11:31:39;96773.47;;;14.32;55.48
64610;BME280;51019;46.090;6.350;2023-04-08T11:34:07;96699.94;;;13.45;57.26
64610;BME280;51019;46.090;6.350;2023-04-08T11:36:34;96793.22;;;13.94;56.72
64610;BME280;51019;46.090;6.350;2023-04-08T11:39:07;96802.03;;;13.33;56.61
64610;BME280;51019;46.090;6.350;2023-04-08T11:41:40;96805.66;;;13.32;59.84
64610;BME280;51019;46.090;6.350;2023-04-08T11:44:09;96808.81;;;13.36;59.04
64610;BME280;51019;46.090;6.350;2023-04-08T11:46:36;96812.44;;;13.17;60.43
64610;BME280;51019;46.090;6.350;2023-04-08T11:49:06;96812.72;;;12.79;58.64
64610;BME280;51019;46.090;6.350;2023-04-08T11:51:54;96809.88;;;13.07;59.01
64610;BME280;51019;46.090;6.350;2023-04-08T11:54:25;96775.91;;;13.92;56.95
64610;BME280;51019;46.090;6.350;2023-04-08T11:56:55;96803.59;;;16.02;51.61
64610;BME280;51019;46.090;6.350;2023-04-08T11:59:23;96789.19;;;14.16;52.02
64610;BME280;51019;46.090;6.350;2023-04-08T12:01:51;96810.56;;;14.05;57.39
64610;BME280;51019;46.090;6.350;2023-04-08T12:04:19;96741.31;;;13.87;55.17
64610;BME280;51019;46.090;6.350;2023-04-08T12:06:46;96782.22;;;13.99;55.91
64610;BME280;51019;46.090;6.350;2023-04-08T12:09:14;96795.72;;;14.88;52.48
64610;BME280;51019;46.090;6.350;2023-04-08T12:11:41;96802.31;;;15.24;52.29
64610;BME280;51019;46.090;6.350;2023-04-08T12:14:10;96783.31;;;15.86;50.14
64610;BME280;51019;46.090;6.350;2023-04-08T12:16:37;96808.09;;;17.48;47.62
64610;BME280;51019;46.090;6.350;2023-04-08T12:19:05;96798.75;;;17.74;47.12
64610;BME280;51019;46.090;6.350;2023-04-08T12:21:33;96799.56;;;16.69;48.76
64610;BME280;51019;46.090;6.350;2023-04-08T12:24:00;96796.38;;;15.14;49.16
64610;BME280;51019;46.090;6.350;2023-04-08T12:26:29;96798.31;;;14.64;50.40
64610;BME280;51019;46.090;6.350;2023-04-08T12:28:57;96787.28;;;14.93;53.17
64610;BME280;51019;46.090;6.350;2023-04-08T12:31:27;96778.66;;;14.50;52.58
64610;BME280;51019;46.090;6.350;2023-04-08T12:33:54;96781.81;;;13.34;54.12
64610;BME280;51019;46.090;6.350;2023-04-08T12:36:25;96786.25;;;14.53;54.85
64610;BME280;51019;46.090;6.350;2023-04-08T12:38:53;96773.94;;;14.94;53.57
64610;BME280;51019;46.090;6.350;2023-04-08T12:41:20;96704.34;;;14.87;52.34
64610;BME280;51019;46.090;6.350;2023-04-08T12:43:47;96781.06;;;15.10;53.42
64610;BME280;51019;46.090;6.350;2023-04-08T12:46:16;96778.09;;;15.45;51.01
64610;BME280;51019;46.090;6.350;2023-04-08T12:48:45;96777.53;;;15.90;50.31
64610;BME280;51019;46.090;6.350;2023-04-08T12:51:14;96770.25;;;17.16;46.54
64610;BME280;51019;46.090;6.350;2023-04-08T12:53:41;96737.03;;;17.28;47.39
64610;BME280;51019;46.090;6.350;2023-04-08T12:56:09;96771.19;;;18.28;43.48
64610;BME280;51019;46.090;6.350;2023-04-08T12:58:38;96773.63;;;16.56;46.69
64610;BME280;51019;46.090;6.350;2023-04-08T13:01:05;96766.97;;;15.82;49.45
64610;BME280;51019;46.090;6.350;2023-04-08T13:03:36;96769.50;;;16.85;49.54
64610;BME280;51019;46.090;6.350;2023-04-08T13:06:05;96750.81;;;15.77;53.87